createdAt,value
2018-01-04T00:00:42.221Z,77.11
2018-01-04T00:01:44.061Z,77.11
2018-01-04T00:02:45.878Z,76.82
2018-01-04T00:03:47.767Z,77.01
2018-01-04T00:04:49.636Z,77.30
2018-01-04T00:05:51.414Z,77.39
2018-01-04T00:07:05.626Z,76.35
2018-01-04T00:08:07.520Z,76.35
2018-01-04T00:09:09.409Z,76.35
2018-01-04T00:10:11.274Z,76.63
2018-01-04T00:11:13.076Z,75.78
2018-01-04T00:12:14.879Z,75.40
2018-01-04T00:13:16.727Z,75.96
2018-01-04T00:14:18.581Z,75.87
2018-01-04T00:15:20.455Z,75.87
2018-01-04T00:16:34.599Z,76.16
2018-01-04T00:17:36.484Z,75.59
2018-01-04T00:18:38.375Z,75.87
2018-01-04T00:19:40.250Z,75.40
2018-01-04T00:20:42.140Z,74.87
2018-01-04T00:21:44.024Z,75.02
2018-01-04T00:22:45.903Z,74.82
2018-01-04T00:23:47.783Z,74.82
2018-01-04T00:24:49.648Z,74.73
2018-01-04T00:26:03.849Z,74.92
2018-01-04T00:27:05.704Z,75.02
2018-01-04T00:28:07.591Z,75.21
2018-01-04T00:29:09.441Z,75.59
2018-01-04T00:30:11.265Z,74.82
2018-01-04T00:31:13.091Z,74.82
2018-01-04T00:32:14.948Z,75.21
2018-01-04T00:33:16.803Z,74.92
2018-01-04T00:34:18.674Z,74.82
2018-01-04T00:35:32.854Z,75.11
2018-01-04T00:36:34.733Z,75.02
2018-01-04T00:37:36.588Z,75.21
2018-01-04T00:38:38.462Z,75.21
2018-01-04T00:39:40.273Z,74.82
2018-01-04T00:40:42.086Z,75.30
2018-01-04T00:41:43.943Z,74.82
2018-01-04T00:42:45.814Z,75.11
2018-01-04T00:43:47.673Z,75.21
2018-01-04T00:45:01.874Z,74.92
2018-01-04T00:46:03.751Z,75.21
2018-01-04T00:47:05.626Z,75.02
2018-01-04T00:48:07.484Z,76.06
2018-01-04T00:49:09.290Z,75.68
2018-01-04T00:50:11.089Z,75.78
2018-01-04T00:51:12.968Z,76.25
2018-01-04T00:52:14.845Z,75.87
2018-01-04T00:53:16.701Z,75.68
2018-01-04T00:54:30.855Z,76.25
2018-01-04T00:55:32.734Z,76.63
2018-01-04T00:56:34.614Z,76.06
2018-01-04T00:57:36.490Z,76.54
2018-01-04T00:58:38.304Z,77.11
2018-01-04T00:59:40.106Z,77.01
2018-01-04T01:00:41.982Z,77.01
2018-01-04T01:01:43.839Z,76.92
2018-01-04T01:02:45.697Z,77.49
2018-01-04T01:03:59.849Z,77.20
2018-01-04T01:05:01.728Z,76.92
2018-01-04T01:06:03.581Z,77.49
2018-01-04T01:07:05.442Z,76.92
2018-01-04T01:08:07.267Z,76.44
2018-01-04T01:09:09.082Z,76.92
2018-01-04T01:10:10.957Z,77.01
2018-01-04T01:11:12.818Z,76.82
2018-01-04T01:12:14.698Z,76.25
2018-01-04T01:13:28.895Z,77.01
2018-01-04T01:14:30.754Z,77.11
2018-01-04T01:15:32.626Z,76.92
2018-01-04T01:16:34.480Z,77.01
2018-01-04T01:17:36.280Z,76.54
2018-01-04T01:18:38.074Z,76.63
2018-01-04T01:19:39.930Z,76.82
2018-01-04T01:20:41.812Z,76.40
2018-01-04T01:21:43.689Z,77.45
2018-01-04T01:22:57.846Z,77.39
2018-01-04T01:23:59.699Z,77.68
2018-01-04T01:25:01.575Z,77.64
2018-01-04T01:26:03.449Z,78.16
2018-01-04T01:27:05.255Z,78.16
2018-01-04T01:28:07.046Z,77.87
2018-01-04T01:29:08.903Z,77.11
2018-01-04T01:30:10.758Z,76.54
2018-01-04T01:31:12.618Z,77.49
2018-01-04T01:32:26.770Z,77.87
2018-01-04T01:33:28.646Z,77.49
2018-01-04T01:34:30.500Z,77.49
2018-01-04T01:35:32.356Z,77.87
2018-01-04T01:36:34.169Z,77.58
2018-01-04T01:37:35.984Z,78.02
2018-01-04T01:38:37.775Z,77.55
2018-01-04T01:39:39.569Z,77.36
2018-01-04T01:40:41.367Z,77.87
2018-01-04T01:41:55.514Z,77.55
2018-01-04T01:42:57.392Z,77.64
2018-01-04T01:43:59.249Z,77.45
2018-01-04T01:45:01.127Z,77.64
2018-01-04T01:46:02.928Z,77.55
2018-01-04T01:47:04.720Z,77.45
2018-01-04T01:48:06.603Z,77.73
2018-01-04T01:49:08.482Z,77.55
2018-01-04T01:50:10.360Z,77.68
2018-01-04T01:51:24.471Z,77.30
2018-01-04T01:52:26.289Z,77.01
2018-01-04T01:53:28.102Z,77.20
2018-01-04T01:54:29.983Z,77.11
2018-01-04T01:55:31.862Z,76.82
2018-01-04T01:56:33.694Z,76.54
2018-01-04T01:57:35.510Z,76.44
2018-01-04T01:58:37.304Z,76.35
2018-01-04T01:59:39.163Z,75.87
2018-01-04T02:00:53.355Z,75.96
2018-01-04T02:01:55.234Z,76.06
2018-01-04T02:02:57.088Z,76.25
2018-01-04T02:03:58.943Z,75.78
2018-01-04T02:05:00.740Z,75.87
2018-01-04T02:06:02.536Z,75.87
2018-01-04T02:07:04.393Z,76.16
2018-01-04T02:08:06.278Z,76.54
2018-01-04T02:09:08.153Z,76.63
2018-01-04T02:10:22.290Z,76.54
2018-01-04T02:11:24.152Z,76.73
2018-01-04T02:12:26.017Z,77.30
2018-01-04T02:13:27.892Z,77.58
2018-01-04T02:14:29.696Z,77.97
2018-01-04T02:15:31.518Z,78.34
2018-01-04T02:16:33.397Z,78.82
2018-01-04T02:17:35.257Z,79.20
2018-01-04T02:18:37.120Z,78.72
2018-01-04T02:19:51.272Z,78.06
2018-01-04T02:20:53.133Z,78.34
2018-01-04T02:21:54.994Z,78.82
2018-01-04T02:22:56.869Z,78.53
2018-01-04T02:23:58.672Z,78.25
2018-01-04T02:25:00.470Z,78.16
2018-01-04T02:26:02.350Z,78.25
2018-01-04T02:27:04.229Z,77.58
2018-01-04T02:28:06.107Z,77.68
2018-01-04T02:29:20.237Z,77.49
2018-01-04T02:30:22.122Z,77.77
2018-01-04T02:31:23.994Z,77.49
2018-01-04T02:32:25.855Z,77.30
2018-01-04T02:33:27.651Z,76.54
2018-01-04T02:34:29.448Z,76.06
2018-01-04T02:35:31.309Z,76.25
2018-01-04T02:36:33.189Z,76.82
2018-01-04T02:37:35.050Z,76.92
2018-01-04T02:38:49.201Z,76.73
2018-01-04T02:39:51.083Z,76.82
2018-01-04T02:40:52.965Z,76.40
2018-01-04T02:41:54.817Z,76.88
2018-01-04T02:42:56.620Z,77.26
2018-01-04T02:43:58.438Z,77.45
2018-01-04T02:45:00.326Z,77.55
2018-01-04T02:46:02.203Z,77.36
2018-01-04T02:47:04.065Z,77.45
2018-01-04T02:48:18.208Z,77.45
2018-01-04T02:49:20.081Z,77.45
2018-01-04T02:50:21.962Z,77.07
2018-01-04T02:51:23.841Z,76.97
2018-01-04T02:52:25.643Z,77.07
2018-01-04T02:53:27.463Z,76.69
2018-01-04T02:54:29.344Z,76.69
2018-01-04T02:55:31.219Z,76.31
2018-01-04T02:56:33.084Z,76.50
2018-01-04T02:57:47.218Z,77.17
2018-01-04T02:58:49.082Z,77.55
2018-01-04T02:59:50.960Z,77.73
2018-01-04T03:00:52.819Z,77.45
2018-01-04T03:01:54.639Z,77.83
2018-01-04T03:02:56.460Z,77.58
2018-01-04T03:03:58.333Z,77.49
2018-01-04T03:05:00.221Z,77.77
2018-01-04T03:06:02.072Z,77.97
2018-01-04T03:07:16.209Z,77.49
2018-01-04T03:08:18.088Z,77.49
2018-01-04T03:09:19.973Z,77.39
2018-01-04T03:10:21.854Z,78.16
2018-01-04T03:11:23.676Z,78.34
2018-01-04T03:12:25.495Z,78.88
2018-01-04T03:13:27.357Z,79.06
2018-01-04T03:14:29.237Z,79.83
2018-01-04T03:15:31.096Z,80.11
2018-01-04T03:16:45.229Z,80.68
2018-01-04T03:17:47.111Z,80.58
2018-01-04T03:18:48.993Z,80.77
2018-01-04T03:19:50.874Z,80.53
2018-01-04T03:20:52.675Z,80.34
2018-01-04T03:21:54.496Z,80.24
2018-01-04T03:22:56.371Z,79.77
2018-01-04T03:23:58.235Z,78.63
2018-01-04T03:25:00.090Z,77.49
2018-01-04T03:26:14.230Z,77.92
2018-01-04T03:27:16.110Z,78.53
2018-01-04T03:28:17.985Z,78.34
2018-01-04T03:29:19.844Z,78.25
2018-01-04T03:30:21.647Z,78.16
2018-01-04T03:31:23.441Z,78.25
2018-01-04T03:32:25.298Z,77.58
2018-01-04T03:33:27.174Z,78.25
2018-01-04T03:34:29.043Z,78.06
2018-01-04T03:35:43.197Z,77.39
2018-01-04T03:36:45.078Z,77.64
2018-01-04T03:37:46.960Z,77.64
2018-01-04T03:38:48.837Z,78.21
2018-01-04T03:39:50.636Z,78.21
2018-01-04T03:40:52.436Z,78.50
2018-01-04T03:41:54.344Z,78.88
2018-01-04T03:42:56.191Z,77.83
2018-01-04T03:43:58.073Z,78.21
2018-01-04T03:45:12.223Z,78.72
2018-01-04T03:46:14.080Z,78.91
2018-01-04T03:47:15.941Z,78.82
2018-01-04T03:48:17.801Z,77.68
2018-01-04T03:49:19.624Z,77.58
2018-01-04T03:50:21.448Z,78.06
2018-01-04T03:51:23.321Z,78.06
2018-01-04T03:52:25.183Z,77.68
2018-01-04T03:53:27.044Z,77.87
2018-01-04T03:54:41.173Z,77.68
2018-01-04T03:55:43.039Z,77.87
2018-01-04T03:56:44.920Z,77.97
2018-01-04T03:57:46.796Z,78.06
2018-01-04T03:58:48.602Z,77.49
2018-01-04T03:59:50.397Z,77.30
2018-01-04T04:00:52.248Z,77.49
2018-01-04T04:01:54.109Z,77.49
2018-01-04T04:02:55.988Z,77.58
2018-01-04T04:04:10.115Z,77.11
2018-01-04T04:05:11.977Z,76.44
2018-01-04T04:06:13.844Z,76.16
2018-01-04T04:07:15.724Z,76.35
2018-01-04T04:08:17.539Z,76.25
2018-01-04T04:09:19.339Z,75.96
2018-01-04T04:10:21.199Z,76.73
2018-01-04T04:11:23.072Z,77.01
2018-01-04T04:12:24.937Z,76.82
2018-01-04T04:13:39.091Z,76.35
2018-01-04T04:14:40.975Z,76.06
2018-01-04T04:15:42.858Z,76.82
2018-01-04T04:16:44.739Z,77.20
2018-01-04T04:17:46.541Z,75.96
2018-01-04T04:18:48.360Z,76.16
2018-01-04T04:19:50.244Z,76.06
2018-01-04T04:20:52.123Z,75.96
2018-01-04T04:21:54.004Z,76.25
2018-01-04T04:23:08.140Z,76.73
2018-01-04T04:24:10.000Z,76.35
2018-01-04T04:25:11.879Z,76.73
2018-01-04T04:26:13.754Z,76.73
2018-01-04T04:27:15.559Z,76.82
2018-01-04T04:28:17.374Z,75.96
2018-01-04T04:29:19.237Z,76.06
2018-01-04T04:30:21.118Z,77.11
2018-01-04T04:31:23.029Z,76.73
2018-01-04T04:32:37.123Z,77.39
2018-01-04T04:33:39.007Z,77.87
2018-01-04T04:34:40.888Z,77.11
2018-01-04T04:35:42.747Z,77.11
2018-01-04T04:36:44.543Z,76.54
2018-01-04T04:37:46.339Z,76.16
2018-01-04T04:38:48.193Z,75.87
2018-01-04T04:39:50.057Z,76.25
2018-01-04T04:40:51.941Z,75.78
2018-01-04T04:42:06.092Z,76.16
2018-01-04T04:43:07.954Z,76.29
2018-01-04T04:44:09.841Z,76.10
2018-01-04T04:45:11.696Z,76.10
2018-01-04T04:46:13.496Z,76.67
2018-01-04T04:47:15.316Z,75.91
2018-01-04T04:48:17.195Z,76.01
2018-01-04T04:49:19.083Z,75.91
2018-01-04T04:50:20.962Z,75.72
2018-01-04T04:51:35.115Z,75.53
2018-01-04T04:52:36.992Z,75.59
2018-01-04T04:53:38.876Z,75.49
2018-01-04T04:54:40.752Z,75.91
2018-01-04T04:55:42.556Z,75.91
2018-01-04T04:56:44.348Z,76.10
2018-01-04T04:57:46.210Z,75.81
2018-01-04T04:58:48.086Z,76.01
2018-01-04T04:59:49.946Z,76.01
2018-01-04T05:01:04.101Z,75.91
2018-01-04T05:02:05.986Z,75.43
2018-01-04T05:03:07.843Z,75.43
2018-01-04T05:04:09.703Z,75.96
2018-01-04T05:05:11.531Z,75.91
2018-01-04T05:06:13.348Z,76.10
2018-01-04T05:07:15.204Z,76.29
2018-01-04T05:08:17.063Z,76.01
2018-01-04T05:09:18.930Z,76.10
2018-01-04T05:10:33.114Z,75.91
2018-01-04T05:11:34.945Z,75.24
2018-01-04T05:12:36.826Z,74.92
2018-01-04T05:13:38.679Z,75.68
2018-01-04T05:14:40.499Z,75.87
2018-01-04T05:15:42.295Z,76.25
2018-01-04T05:16:44.156Z,76.06
2018-01-04T05:17:46.016Z,76.16
2018-01-04T05:18:47.902Z,75.96
2018-01-04T05:20:02.055Z,76.10
2018-01-04T05:21:03.920Z,76.16
2018-01-04T05:22:05.808Z,75.68
2018-01-04T05:23:07.678Z,75.49
2018-01-04T05:24:09.503Z,74.92
2018-01-04T05:25:11.319Z,75.21
2018-01-04T05:26:13.178Z,75.11
2018-01-04T05:27:15.059Z,75.78
2018-01-04T05:28:16.927Z,76.35
2018-01-04T05:29:31.073Z,76.16
2018-01-04T05:30:32.941Z,76.73
2018-01-04T05:31:34.823Z,75.96
2018-01-04T05:32:36.712Z,75.02
2018-01-04T05:33:38.506Z,75.30
2018-01-04T05:34:40.306Z,75.21
2018-01-04T05:35:42.184Z,74.92
2018-01-04T05:36:44.044Z,75.21
2018-01-04T05:37:45.903Z,74.92
2018-01-04T05:39:00.037Z,74.92
2018-01-04T05:40:01.923Z,75.87
2018-01-04T05:41:03.804Z,76.06
2018-01-04T05:42:05.659Z,75.36
2018-01-04T05:43:07.461Z,75.17
2018-01-04T05:44:09.277Z,75.93
2018-01-04T05:45:11.138Z,75.96
2018-01-04T05:46:13.004Z,75.87
2018-01-04T05:47:14.889Z,74.92
2018-01-04T05:48:29.040Z,74.82
2018-01-04T05:49:30.926Z,75.02
2018-01-04T05:50:32.808Z,74.73
2018-01-04T05:51:34.688Z,74.82
2018-01-04T05:52:36.509Z,74.54
2018-01-04T05:53:38.308Z,74.73
2018-01-04T05:54:40.198Z,74.73
2018-01-04T05:55:42.044Z,74.82
2018-01-04T05:56:43.925Z,74.63
2018-01-04T05:57:58.053Z,75.21
2018-01-04T05:58:59.938Z,75.30
2018-01-04T06:00:01.822Z,74.82
2018-01-04T06:01:03.705Z,74.63
2018-01-04T06:02:05.530Z,74.92
2018-01-04T06:03:07.347Z,74.63
2018-01-04T06:04:09.209Z,74.35
2018-01-04T06:05:11.094Z,74.44
2018-01-04T06:06:12.960Z,75.02
2018-01-04T06:07:27.130Z,74.92
2018-01-04T06:08:29.011Z,75.30
2018-01-04T06:09:30.878Z,75.11
2018-01-04T06:10:32.761Z,74.82
2018-01-04T06:11:34.567Z,75.59
2018-01-04T06:12:36.408Z,75.24
2018-01-04T06:13:38.286Z,76.10
2018-01-04T06:14:40.146Z,75.68
2018-01-04T06:15:42.000Z,76.29
2018-01-04T06:16:56.134Z,75.91
2018-01-04T06:17:58.004Z,75.91
2018-01-04T06:18:59.881Z,75.43
2018-01-04T06:20:01.762Z,74.96
2018-01-04T06:21:03.565Z,75.30
2018-01-04T06:22:05.388Z,75.21
2018-01-04T06:23:07.285Z,76.06
2018-01-04T06:24:09.136Z,76.16
2018-01-04T06:25:11.014Z,77.11
2018-01-04T06:26:25.139Z,77.49
2018-01-04T06:27:27.000Z,77.77
2018-01-04T06:28:28.866Z,78.25
2018-01-04T06:29:30.745Z,78.53
2018-01-04T06:30:32.569Z,78.72
2018-01-04T06:31:34.388Z,78.82
2018-01-04T06:32:36.270Z,78.72
2018-01-04T06:33:38.156Z,78.53
2018-01-04T06:34:40.040Z,78.25
2018-01-04T06:35:54.174Z,78.29
2018-01-04T06:36:56.057Z,78.53
2018-01-04T06:37:57.915Z,78.57
2018-01-04T06:38:59.780Z,78.91
2018-01-04T06:40:01.603Z,78.48
2018-01-04T06:41:03.417Z,78.67
2018-01-04T06:42:05.280Z,78.57
2018-01-04T06:43:07.147Z,78.57
2018-01-04T06:44:09.033Z,78.67
2018-01-04T06:45:23.190Z,78.67
2018-01-04T06:46:25.047Z,79.01
2018-01-04T06:47:26.927Z,79.11
2018-01-04T06:48:28.793Z,79.49
2018-01-04T06:49:30.617Z,79.68
2018-01-04T06:50:32.441Z,79.86
2018-01-04T06:51:34.325Z,80.57
2018-01-04T06:52:36.211Z,80.29
2018-01-04T06:53:38.095Z,80.82
2018-01-04T06:54:52.249Z,80.91
2018-01-04T06:55:54.185Z,81.38
2018-01-04T06:56:56.015Z,81.86
2018-01-04T06:57:57.899Z,82.43
2018-01-04T06:58:59.701Z,82.91
2018-01-04T07:00:01.523Z,83.86
2018-01-04T07:01:03.402Z,85.00
2018-01-04T07:02:05.260Z,85.76
2018-01-04T07:03:07.119Z,85.47
2018-01-04T07:04:21.251Z,85.38
2018-01-04T07:05:23.116Z,85.10
2018-01-04T07:06:25.003Z,85.28
2018-01-04T07:07:26.886Z,85.28
2018-01-04T07:08:28.708Z,85.57
2018-01-04T07:09:30.508Z,85.05
2018-01-04T07:10:32.369Z,85.10
2018-01-04T07:11:34.248Z,85.34
2018-01-04T07:12:36.116Z,85.15
2018-01-04T07:13:50.255Z,85.05
2018-01-04T07:14:52.139Z,85.34
2018-01-04T07:15:54.005Z,85.24
2018-01-04T07:16:55.865Z,85.05
2018-01-04T07:17:57.674Z,85.05
2018-01-04T07:18:59.494Z,85.05
2018-01-04T07:20:01.379Z,85.05
2018-01-04T07:21:03.259Z,85.34
2018-01-04T07:22:05.126Z,84.77
2018-01-04T07:23:19.262Z,84.67
2018-01-04T07:24:21.149Z,84.01
2018-01-04T07:25:23.035Z,84.10
2018-01-04T07:26:24.922Z,84.20
2018-01-04T07:27:26.749Z,84.10
2018-01-04T07:28:28.569Z,84.01
2018-01-04T07:29:30.394Z,84.01
2018-01-04T07:30:32.213Z,83.72
2018-01-04T07:31:34.038Z,83.95
2018-01-04T07:32:48.176Z,84.05
2018-01-04T07:33:50.043Z,83.44
2018-01-04T07:34:51.926Z,83.67
2018-01-04T07:35:53.799Z,83.67
2018-01-04T07:36:55.616Z,83.86
2018-01-04T07:37:57.422Z,83.86
2018-01-04T07:38:59.308Z,83.67
2018-01-04T07:40:01.173Z,83.48
2018-01-04T07:41:03.059Z,82.81
2018-01-04T07:42:17.196Z,82.81
2018-01-04T07:43:19.072Z,82.53
2018-01-04T07:44:20.986Z,82.71
2018-01-04T07:45:22.911Z,82.62
2018-01-04T07:46:24.776Z,82.34
2018-01-04T07:47:26.636Z,82.71
2018-01-04T07:48:28.576Z,82.62
2018-01-04T07:49:30.507Z,82.62
2018-01-04T07:50:32.427Z,82.24
2018-01-04T07:51:46.653Z,82.71
2018-01-04T07:52:48.570Z,82.62
2018-01-04T07:53:50.505Z,82.05
2018-01-04T07:54:52.424Z,82.43
2018-01-04T07:55:54.288Z,83.00
2018-01-04T07:56:56.136Z,83.19
2018-01-04T07:57:58.023Z,83.00
2018-01-04T07:58:59.910Z,83.00
2018-01-04T08:00:01.797Z,82.91
2018-01-04T08:01:15.956Z,82.53
2018-01-04T08:02:17.840Z,82.62
2018-01-04T08:03:19.699Z,83.19
2018-01-04T08:04:21.588Z,83.10
2018-01-04T08:05:23.395Z,83.48
2018-01-04T08:06:25.221Z,82.53
2018-01-04T08:07:27.106Z,82.24
2018-01-04T08:08:28.968Z,82.53
2018-01-04T08:09:30.833Z,82.43
2018-01-04T08:10:45.020Z,81.96
2018-01-04T08:11:46.907Z,81.96
2018-01-04T08:12:48.793Z,81.86
2018-01-04T08:13:50.679Z,81.77
2018-01-04T08:14:52.509Z,81.77
2018-01-04T08:15:54.334Z,81.86
2018-01-04T08:16:56.221Z,81.29
2018-01-04T08:17:58.113Z,81.58
2018-01-04T08:19:00.001Z,81.10
2018-01-04T08:20:14.162Z,81.10
2018-01-04T08:21:16.058Z,81.10
2018-01-04T08:22:17.944Z,81.38
2018-01-04T08:23:19.828Z,81.38
2018-01-04T08:24:21.629Z,81.33
2018-01-04T08:25:23.432Z,81.33
2018-01-04T08:26:25.302Z,81.10
2018-01-04T08:27:27.167Z,81.20
2018-01-04T08:28:29.039Z,81.48
2018-01-04T08:29:43.174Z,81.20
2018-01-04T08:30:45.060Z,80.91
2018-01-04T08:31:46.936Z,81.01
2018-01-04T08:32:48.814Z,81.10
2018-01-04T08:33:50.620Z,81.38
2018-01-04T08:34:52.430Z,81.29
2018-01-04T08:35:54.318Z,81.20
2018-01-04T08:36:56.206Z,81.48
2018-01-04T08:37:58.076Z,81.01
2018-01-04T08:39:12.209Z,81.05
2018-01-04T08:40:14.072Z,80.82
2018-01-04T08:41:15.939Z,80.44
2018-01-04T08:42:17.827Z,80.95
2018-01-04T08:43:19.652Z,80.38
2018-01-04T08:44:21.459Z,79.91
2018-01-04T08:45:23.327Z,79.81
2018-01-04T08:46:25.188Z,79.43
2018-01-04T08:47:27.055Z,79.72
2018-01-04T08:48:41.214Z,79.14
2018-01-04T08:49:43.103Z,78.77
2018-01-04T08:50:44.995Z,79.14
2018-01-04T08:51:46.926Z,78.57
2018-01-04T08:52:48.703Z,78.48
2018-01-04T08:53:50.510Z,78.48
2018-01-04T08:54:52.397Z,78.57
2018-01-04T08:55:54.281Z,78.77
2018-01-04T08:56:56.151Z,78.77
2018-01-04T08:58:10.313Z,78.38
2018-01-04T08:59:12.201Z,78.19
2018-01-04T09:00:14.076Z,78.29
2018-01-04T09:01:15.936Z,78.38
2018-01-04T09:02:17.742Z,78.19
2018-01-04T09:03:19.547Z,78.00
2018-01-04T09:04:21.415Z,77.53
2018-01-04T09:05:23.285Z,77.43
2018-01-04T09:06:25.152Z,77.05
2018-01-04T09:07:39.326Z,76.14
2018-01-04T09:08:41.181Z,76.10
2018-01-04T09:09:43.070Z,76.57
2018-01-04T09:10:44.961Z,75.81
2018-01-04T09:11:46.766Z,76.20
2018-01-04T09:12:48.591Z,76.01
2018-01-04T09:13:50.478Z,76.48
2018-01-04T09:14:52.365Z,76.14
2018-01-04T09:15:54.234Z,75.95
2018-01-04T09:17:08.372Z,75.85
2018-01-04T09:18:10.240Z,75.47
2018-01-04T09:19:12.129Z,75.67
2018-01-04T09:20:14.017Z,74.90
2018-01-04T09:21:15.822Z,75.28
2018-01-04T09:22:17.646Z,75.09
2018-01-04T09:23:19.518Z,74.99
2018-01-04T09:24:21.390Z,75.09
2018-01-04T09:25:23.259Z,74.71
2018-01-04T09:26:37.467Z,74.52
2018-01-04T09:27:39.355Z,74.24
2018-01-04T09:28:41.229Z,74.33
2018-01-04T09:29:43.116Z,74.52
2018-01-04T09:30:44.950Z,74.46
2018-01-04T09:31:46.776Z,74.18
2018-01-04T09:32:48.667Z,74.18
2018-01-04T09:33:50.540Z,73.61
2018-01-04T09:34:52.405Z,73.89
2018-01-04T09:36:06.568Z,73.22
2018-01-04T09:37:08.436Z,73.61
2018-01-04T09:38:10.329Z,73.70
2018-01-04T09:39:12.194Z,74.27
2018-01-04T09:40:13.999Z,73.89
2018-01-04T09:41:15.809Z,73.80
2018-01-04T09:42:17.695Z,73.41
2018-01-04T09:43:19.563Z,73.32
2018-01-04T09:44:21.434Z,73.51
2018-01-04T09:45:35.597Z,73.03
2018-01-04T09:46:37.488Z,73.32
2018-01-04T09:47:39.378Z,73.32
2018-01-04T09:48:41.252Z,72.65
2018-01-04T09:49:43.086Z,72.56
2018-01-04T09:50:44.916Z,71.89
2018-01-04T09:51:46.803Z,72.27
2018-01-04T09:52:48.675Z,72.37
2018-01-04T09:53:50.563Z,72.27
2018-01-04T09:55:04.703Z,71.80
2018-01-04T09:56:06.570Z,71.22
2018-01-04T09:57:08.465Z,72.08
2018-01-04T09:58:10.355Z,72.08
2018-01-04T09:59:12.188Z,71.80
2018-01-04T10:00:14.023Z,71.61
2018-01-04T10:01:15.908Z,71.98
2018-01-04T10:02:17.806Z,71.80
2018-01-04T10:03:19.699Z,72.17
2018-01-04T10:04:33.844Z,72.27
2018-01-04T10:05:35.735Z,72.37
2018-01-04T10:06:37.625Z,72.46
2018-01-04T10:07:39.494Z,72.75
2018-01-04T10:08:41.307Z,72.56
2018-01-04T10:09:43.136Z,72.37
2018-01-04T10:10:45.025Z,72.37
2018-01-04T10:11:46.898Z,72.08
2018-01-04T10:12:48.789Z,72.17
2018-01-04T10:14:03.002Z,72.17
2018-01-04T10:15:04.874Z,72.17
2018-01-04T10:16:06.765Z,72.08
2018-01-04T10:17:08.657Z,71.89
2018-01-04T10:18:10.482Z,71.80
2018-01-04T10:19:12.293Z,71.89
2018-01-04T10:20:14.163Z,71.61
2018-01-04T10:21:16.055Z,72.17
2018-01-04T10:22:17.919Z,71.70
2018-01-04T10:23:32.064Z,71.98
2018-01-04T10:24:33.954Z,71.70
2018-01-04T10:25:35.826Z,71.70
2018-01-04T10:26:37.691Z,71.51
2018-01-04T10:27:39.504Z,71.80
2018-01-04T10:28:41.306Z,71.80
2018-01-04T10:29:43.194Z,71.64
2018-01-04T10:30:45.070Z,71.80
2018-01-04T10:31:46.961Z,71.61
2018-01-04T10:33:01.103Z,71.98
2018-01-04T10:34:02.995Z,71.80
2018-01-04T10:35:04.885Z,71.93
2018-01-04T10:36:06.772Z,71.61
2018-01-04T10:37:08.578Z,72.27
2018-01-04T10:38:10.386Z,72.37
2018-01-04T10:39:12.279Z,72.08
2018-01-04T10:40:14.170Z,71.93
2018-01-04T10:41:16.055Z,71.55
2018-01-04T10:42:30.202Z,71.55
2018-01-04T10:43:32.063Z,71.36
2018-01-04T10:44:33.937Z,71.36
2018-01-04T10:45:35.809Z,71.45
2018-01-04T10:46:37.636Z,71.45
2018-01-04T10:47:39.466Z,71.17
2018-01-04T10:48:41.358Z,71.55
2018-01-04T10:49:43.252Z,71.36
2018-01-04T10:50:45.125Z,71.73
2018-01-04T10:51:59.284Z,71.93
2018-01-04T10:53:01.174Z,71.55
2018-01-04T10:54:03.047Z,71.26
2018-01-04T10:55:04.910Z,71.73
2018-01-04T10:56:06.723Z,71.45
2018-01-04T10:57:08.552Z,71.36
2018-01-04T10:58:10.446Z,71.26
2018-01-04T10:59:12.311Z,71.55
2018-01-04T11:00:14.203Z,71.73
2018-01-04T11:01:28.340Z,71.55
2018-01-04T11:02:30.229Z,71.45
2018-01-04T11:03:32.100Z,71.55
2018-01-04T11:04:33.963Z,71.36
2018-01-04T11:05:35.779Z,71.64
2018-01-04T11:06:37.581Z,71.42
2018-01-04T11:07:39.471Z,71.32
2018-01-04T11:08:41.364Z,71.13
2018-01-04T11:09:43.234Z,71.61
2018-01-04T11:10:57.401Z,71.61
2018-01-04T11:11:59.296Z,71.98
2018-01-04T11:13:01.188Z,71.89
2018-01-04T11:14:03.078Z,71.98
2018-01-04T11:15:04.910Z,72.37
2018-01-04T11:16:06.719Z,72.27
2018-01-04T11:17:08.610Z,72.56
2018-01-04T11:18:10.500Z,72.85
2018-01-04T11:19:12.400Z,73.13
2018-01-04T11:20:26.550Z,73.32
2018-01-04T11:21:28.425Z,73.51
2018-01-04T11:22:30.288Z,73.99
2018-01-04T11:23:32.157Z,73.70
2018-01-04T11:24:33.966Z,73.89
2018-01-04T11:25:35.792Z,74.18
2018-01-04T11:26:37.662Z,74.37
2018-01-04T11:27:39.554Z,74.37
2018-01-04T11:28:41.444Z,73.89
2018-01-04T11:29:55.607Z,73.80
2018-01-04T11:30:57.495Z,73.80
2018-01-04T11:31:59.370Z,73.70
2018-01-04T11:33:01.274Z,73.51
2018-01-04T11:34:03.079Z,73.89
2018-01-04T11:35:04.892Z,73.41
2018-01-04T11:36:06.798Z,73.03
2018-01-04T11:37:08.687Z,72.94
2018-01-04T11:38:10.559Z,73.03
2018-01-04T11:39:24.717Z,72.46
2018-01-04T11:40:26.583Z,72.37
2018-01-04T11:41:28.452Z,72.17
2018-01-04T11:42:30.320Z,72.37
2018-01-04T11:43:32.132Z,72.46
2018-01-04T11:44:33.960Z,72.37
2018-01-04T11:45:35.849Z,72.17
2018-01-04T11:46:37.720Z,71.98
2018-01-04T11:47:39.586Z,72.37
2018-01-04T11:48:53.745Z,72.37
2018-01-04T11:49:55.609Z,72.27
2018-01-04T11:50:57.480Z,72.27
2018-01-04T11:51:59.372Z,72.46
2018-01-04T11:53:01.178Z,71.80
2018-01-04T11:54:02.991Z,71.70
2018-01-04T11:55:04.877Z,71.80
2018-01-04T11:56:06.763Z,71.89
2018-01-04T11:57:08.635Z,71.70
2018-01-04T11:58:22.813Z,71.89
2018-01-04T11:59:24.676Z,71.80
2018-01-04T12:00:26.566Z,71.70
2018-01-04T12:01:28.428Z,71.70
2018-01-04T12:02:30.243Z,71.80
2018-01-04T12:03:32.068Z,71.80
2018-01-04T12:04:33.956Z,71.80
2018-01-04T12:05:35.835Z,71.89
2018-01-04T12:06:37.721Z,71.80
2018-01-04T12:07:51.927Z,71.80
2018-01-04T12:08:53.830Z,71.51
2018-01-04T12:09:55.662Z,71.70
2018-01-04T12:10:57.532Z,71.42
2018-01-04T12:11:59.382Z,71.32
2018-01-04T12:13:01.191Z,71.61
2018-01-04T12:14:03.058Z,71.70
2018-01-04T12:15:04.947Z,71.80
2018-01-04T12:16:06.816Z,71.32
2018-01-04T12:17:20.977Z,71.22
2018-01-04T12:18:22.870Z,71.03
2018-01-04T12:19:24.761Z,71.22
2018-01-04T12:20:26.648Z,70.84
2018-01-04T12:21:28.456Z,70.84
2018-01-04T12:22:30.260Z,70.78
2018-01-04T12:23:32.148Z,70.69
2018-01-04T12:24:34.025Z,70.88
2018-01-04T12:25:35.914Z,70.69
2018-01-04T12:26:50.071Z,70.88
2018-01-04T12:27:51.942Z,70.59
2018-01-04T12:28:53.837Z,70.69
2018-01-04T12:29:55.724Z,70.88
2018-01-04T12:30:57.557Z,70.78
2018-01-04T12:31:59.360Z,71.26
2018-01-04T12:33:01.269Z,71.17
2018-01-04T12:34:03.136Z,71.17
2018-01-04T12:35:05.010Z,71.64
2018-01-04T12:36:19.171Z,71.64
2018-01-04T12:37:21.059Z,71.70
2018-01-04T12:38:22.934Z,72.27
2018-01-04T12:39:24.819Z,71.61
2018-01-04T12:40:26.633Z,72.46
2018-01-04T12:41:28.457Z,72.27
2018-01-04T12:42:30.330Z,72.08
2018-01-04T12:43:32.223Z,72.56
2018-01-04T12:44:34.100Z,72.94
2018-01-04T12:45:48.280Z,72.75
2018-01-04T12:46:50.171Z,72.94
2018-01-04T12:47:52.057Z,72.65
2018-01-04T12:48:53.932Z,72.75
2018-01-04T12:49:55.797Z,72.65
2018-01-04T12:50:57.569Z,72.85
2018-01-04T12:51:59.435Z,72.65
2018-01-04T12:53:01.334Z,72.85
2018-01-04T12:54:03.211Z,72.56
2018-01-04T12:55:17.348Z,72.94
2018-01-04T12:56:19.214Z,73.22
2018-01-04T12:57:21.082Z,73.13
2018-01-04T12:58:22.954Z,73.41
2018-01-04T12:59:24.787Z,73.13
2018-01-04T13:00:26.617Z,73.32
2018-01-04T13:01:28.508Z,73.32
2018-01-04T13:02:30.403Z,72.94
2018-01-04T13:03:32.295Z,72.94
2018-01-04T13:04:46.455Z,73.03
2018-01-04T13:05:48.322Z,73.32
2018-01-04T13:06:50.215Z,73.22
2018-01-04T13:07:52.102Z,72.65
2018-01-04T13:08:53.910Z,72.94
2018-01-04T13:09:55.752Z,72.94
2018-01-04T13:10:57.584Z,73.22
2018-01-04T13:11:59.478Z,72.94
2018-01-04T13:13:01.366Z,73.03
2018-01-04T13:14:15.504Z,73.32
2018-01-04T13:15:17.368Z,73.38
2018-01-04T13:16:19.240Z,73.41
2018-01-04T13:17:21.130Z,73.47
2018-01-04T13:18:22.957Z,73.47
2018-01-04T13:19:24.756Z,73.28
2018-01-04T13:20:26.628Z,73.76
2018-01-04T13:21:28.519Z,74.24
2018-01-04T13:22:30.390Z,73.66
2018-01-04T13:23:44.549Z,73.85
2018-01-04T13:24:46.446Z,73.76
2018-01-04T13:25:48.332Z,73.95
2018-01-04T13:26:50.214Z,74.24
2018-01-04T13:27:52.025Z,74.14
2018-01-04T13:28:53.852Z,73.95
2018-01-04T13:29:55.744Z,74.04
2018-01-04T13:30:57.609Z,74.14
2018-01-04T13:31:59.441Z,74.14
2018-01-04T13:33:13.577Z,74.14
2018-01-04T13:34:15.440Z,73.85